• Join FlightAware (Why Join?)
  • Login
  • US Flag 
07:30PM EDT


 

Airport Tracker/Info


-or-


 

Live Flight TrackerFlight Track Log ✈ UAL3776 ✈ 22-Apr-2013 ✈ KMIA - KIAD

Flight Track Log - Related Links

Times and Time Zones

All times are in EDT time to prevent confusion due to time zone crossing. See the UAL3776 flight status page for this flight to view local times or setup timezone preferences in your user account.

Time Position Orientation Groundspeed Altitude Reporting Facility
EDT Latitude Longitude Course Direction KTS MPH feet Rate Location/Type
01:19PM 25.7981 -80.2767 80° East 156 180 800  Level Miami Center
01:20PM 25.8103 -80.2008 80° East 227 261 3,200 2,160 Climbing Miami Center
01:21PM 25.8636 -80.1564 37° Northeast 273 314 5,700 2,400 Climbing Miami Center
01:22PM 25.9256 -80.1811 340° North 288 331 7,800 2,220 Climbing Miami Center
01:23PM 25.9875 -80.2175 332° Northwest 283 326 9,900 1,800 Climbing Miami Center
01:24PM 26.0592 -80.2797 322° Northwest 300 345 11,400 1,680 Climbing Miami Center
01:25PM 26.1369 -80.3489 321° Northwest 331 381 13,300 1,980 Climbing Miami Center
01:26PM 26.2167 -80.4161 323° Northwest 355 409 15,400 2,100 Climbing Miami Center
01:27PM 26.3197 -80.4747 333° Northwest 367 422 17,600 1,800 Climbing Miami Center
01:28PM 26.4189 -80.5219 337° Northwest 384 442 19,000 1,500 Climbing Miami Center
01:29PM 26.5219 -80.5717 337° Northwest 395 455 20,700 1,560 Climbing Miami Center
01:30PM 26.6211 -80.6164 338° Northwest 395 455 22,200 1,440 Climbing Miami Center
01:31PM 26.7283 -80.6686 336° Northwest 400 460 23,600 1,140 Climbing Miami Center
01:32PM 26.8231 -80.7114 338° Northwest 409 471 24,500 900 Climbing Miami Center
01:33PM 26.9392 -80.7503 343° North 420 483 25,500 960 Climbing Miami Center
01:34PM 27.0569 -80.7939 342° North 431 496 26,500 960 Climbing Miami Center
01:35PM 27.1728 -80.8350 342° North 436 502 27,500 960 Climbing Miami Center
01:36PM 27.2925 -80.8789 342° North 441 507 28,500 1,020 Climbing Miami Center
01:37PM 27.4147 -80.9206 343° North 441 507 29,600 1,020 Climbing Miami Center
01:38PM 27.5322 -80.9644 342° North 446 513 30,600 960 Climbing Miami Center
01:39PM 27.6481 -81.0086 341° North 441 507 31,600 960 Climbing Miami Center
01:40PM 27.7678 -81.0503 343° North 435 501 32,600 960 Climbing Miami Center
01:41PM 27.8900 -81.0856 346° North 435 501 33,600 960 Climbing Miami Center
01:42PM 28.0106 -81.1039 352° North 440 506 34,600 960 Climbing Miami Center
01:43PM 28.1308 -81.1250 351° North 435 501 35,600 1,020 Climbing Miami Center
01:44PM 28.2617 -81.1489 351° North 429 494 36,700 660 Climbing Miami Center
01:45PM 28.3697 -81.1647 353° North 424 488 37,000 120 Climbing Miami Center
01:46PM 28.4919 -81.1883 350° North 430 495 37,000  Level Miami Center
01:47PM 28.6022 -81.2089 351° North 439 505 37,000  Level Jacksonville Center
01:48PM 28.7297 -81.2306 352° North 451 519 37,000  Level Jacksonville Center
01:49PM 28.8594 -81.2522 352° North 456 525 37,000  Level Jacksonville Center
01:50PM 28.9892 -81.2761 351° North 466 536 37,000  Level Jacksonville Center
01:51PM 29.1189 -81.2953 353° North 466 536 37,000  Level Jacksonville Center
01:52PM 29.2464 -81.3219 350° North 466 536 37,000  Level Jacksonville Center
01:53PM 29.3761 -81.3436 352° North 466 536 37,000  Level Jacksonville Center
01:54PM 29.5183 -81.3675 352° North 466 536 37,000  Level Jacksonville Center
01:55PM 29.6503 -81.3919 351° North 466 536 37,000  Level Jacksonville Center
01:56PM 29.7797 -81.4114 353° North 466 536 37,000  Level Jacksonville Center
01:57PM 29.9094 -81.4356 351° North 466 536 37,000  Level Jacksonville Center
01:58PM 30.0392 -81.4578 352° North 466 536 37,000  Level Jacksonville Center
01:59PM 30.1711 -81.4797 352° North 471 542 37,000  Level Jacksonville Center
02:00PM 30.3028 -81.5044 351° North 471 542 37,000  Level Jacksonville Center
02:01PM 30.4344 -81.5025 North 471 542 37,000  Level Jacksonville Center
02:02PM 30.5700 -81.4908 North 466 536 37,000  Level Jacksonville Center
02:03PM 30.7033 -81.4817 North 477 549 37,000  Level Jacksonville Center
02:04PM 30.8411 -81.4697 North 482 555 37,000  Level Jacksonville Center
02:05PM 30.9767 -81.4606 North 482 555 37,000  Level Jacksonville Center
02:06PM 31.1122 -81.4511 North 482 555 37,000  Level Jacksonville Center
02:07PM 31.2500 -81.4369 North 483 556 37,000  Level Jacksonville Center
02:08PM 31.3706 -81.4058 12° North 490 564 37,000  Level Jacksonville Center
02:09PM 31.5186 -81.3669 13° North 490 564 37,000  Level Jacksonville Center
02:10PM 31.6539 -81.3331 12° North 490 564 37,000  Level Jacksonville Center
02:11PM 31.7911 -81.2964 13° North 495 570 37,000  Level Jacksonville Center
02:12PM 31.9139 -81.2625 13° North 495 570 37,000  Level Jacksonville Center
02:13PM 32.0511 -81.2283 12° North 495 570 37,000  Level Jacksonville Center
02:14PM 32.1842 -81.1742 19° North 495 570 37,000  Level Jacksonville Center
02:15PM 32.3061 -81.0861 31° Northeast 495 570 37,000  Level Jacksonville Center
02:16PM 32.4239 -81.0000 32° Northeast 495 570 37,000  Level Jacksonville Center
02:17PM 32.5456 -80.9111 32° Northeast 500 575 37,000  Level Jacksonville Center
02:18PM 32.6653 -80.8272 31° Northeast 500 575 37,000  Level Jacksonville Center
02:19PM 32.7869 -80.7378 32° Northeast 505 581 37,000  Level Jacksonville Center
02:20PM 32.9086 -80.6483 32° Northeast 505 581 37,000  Level Jacksonville Center
02:21PM 33.0322 -80.5611 31° Northeast 505 581 37,000  Level Jacksonville Center
02:22PM 33.1539 -80.4736 31° Northeast 505 581 37,000  Level Jacksonville Center
02:23PM 33.2894 -80.3703 32° Northeast 510 587 37,000  Level Jacksonville Center
02:24PM 33.4128 -80.2797 31° Northeast 510 587 37,000  Level Jacksonville Center
02:25PM 33.5361 -80.1889 32° Northeast 510 587 37,000  Level Jacksonville Center
02:26PM 33.6594 -80.0953 32° Northeast 510 587 37,000  Level Jacksonville Center
02:27PM 33.7803 -80.0017 33° Northeast 510 587 37,000  Level Jacksonville Center
02:28PM 33.9056 -79.9100 31° Northeast 510 587 37,000  Level Jacksonville Center
02:29PM 34.0283 -79.8156 33° Northeast 510 587 37,000  Level Jacksonville Center
02:32PM 34.3147 -79.6175 30° Northeast 507 583 37,000  Level Washington Center
02:33PM 34.4508 -79.5458 23° Northeast 518 596 37,000  Level Washington Center
02:34PM 34.5867 -79.4744 23° Northeast 523 602 37,000  Level Washington Center
02:35PM 34.7247 -79.4000 24° Northeast 528 608 37,000  Level Washington Center
02:36PM 34.8625 -79.3281 23° Northeast 528 608 37,000  Level Washington Center
02:37PM 35.0131 -79.2489 23° Northeast 528 608 37,000 -300 Level Washington Center
02:38PM 35.1511 -79.1739 24° Northeast 528 608 36,500 -840 Descending Washington Center
02:39PM 35.2908 -79.1011 23° Northeast 528 608 35,400 -1,080 Descending Washington Center
02:40PM 35.4308 -79.0256 24° Northeast 528 608 34,400 -1,020 Descending Washington Center
02:41PM 35.5747 -78.9528 22° Northeast 539 620 33,400 -720 Descending Washington Center
02:42PM 35.7167 -78.8742 24° Northeast 544 626 33,000 -240 Descending Washington Center
02:43PM 35.8567 -78.7956 24° Northeast 549 632 33,000 -60 Level Washington Center
02:44PM 36.0006 -78.7167 24° Northeast 549 632 32,900 -1,260 Descending Washington Center
02:45PM 36.1403 -78.6372 25° Northeast 544 626 30,500 -2,340 Descending Washington Center
02:46PM 36.2778 -78.5600 24° Northeast 544 626 28,300 -1,800 Descending Washington Center
02:47PM 36.4111 -78.4825 25° Northeast 532 612 27,000 -660 Descending Washington Center
02:48PM 36.5444 -78.4047 25° Northeast 526 605 27,000  Level Washington Center
02:49PM 36.6544 -78.3414 25° Northeast 526 605 27,000  Level Washington Center
02:50PM 36.8006 -78.2533 26° Northeast 526 605 27,000  Level Washington Center
02:51PM 36.9397 -78.1750 24° Northeast 526 605 27,000  Level Washington Center
02:52PM 37.0750 -78.0936 26° Northeast 526 605 27,000  Level Washington Center
02:53PM 37.2103 -78.0172 24° Northeast 526 605 27,000  Level Washington Center
02:54PM 37.3431 -77.9378 25° Northeast 526 605 27,000 -1,380 Level Washington Center
02:55PM 37.4719 -77.8631 25° Northeast 516 594 24,300 -2,760 Descending Washington Center
02:56PM 37.5919 -77.7933 25° Northeast 494 568 21,500 -2,820 Descending Washington Center
02:57PM 37.7036 -77.7283 25° Northeast 460 529 18,700 -2,520 Descending Washington Center
02:58PM 37.8069 -77.6656 26° Northeast 426 490 16,500 -2,460 Descending Washington Center
02:59PM 37.9061 -77.6103 24° Northeast 404 465 13,800 -2,460 Descending Washington Center
03:00PM 38.0008 -77.5522 26° Northeast 383 441 11,600 -1,920 Descending Washington Center
03:01PM 38.0933 -77.5047 22° Northeast 366 421 10,000 -840 Descending Washington Center
03:02PM 38.1733 -77.4564 25° Northeast 340 391 10,000 -60 Level Washington Center
03:03PM 38.2469 -77.4081 27° Northeast 309 356 9,900 -660 Descending Washington Center
03:04PM 38.3164 -77.3675 25° Northeast 286 329 8,700 -1,200 Descending Washington Center
03:05PM 38.3897 -77.3586 North 264 304 7,600 -1,140 Descending Washington Center
03:06PM 38.4647 -77.3603 359° North 264 304 6,500 -1,140 Descending Washington Center
03:07PM 38.5356 -77.3647 357° North 254 292 5,400 -900 Descending Washington Center
03:08PM 38.6022 -77.3689 357° North 249 287 4,800 -840 Descending Washington Center
03:08PM 38.6500 -77.3667 North 223 257 4,000 -480 Descending Potomac TRACON
03:09PM 38.7167 -77.3667 360° North 225 259 4,000  Level Potomac TRACON
03:10PM 38.7667 -77.3500 15° North 227 261 4,000  Level Potomac TRACON
03:11PM 38.8333 -77.3500 360° North 223 257 4,000  Level Potomac TRACON
03:12PM 38.9000 -77.3500 360° North 223 257 4,000 -180 Level Potomac TRACON
03:14PM 38.9474 -77.4599 North  Level Estimated
03:14PM 39.0333 -77.3500 North 228 262 3,600  Level Potomac TRACON
03:15PM 39.0833 -77.3833 333° Northwest 244 281 2,600 -900 Descending Potomac TRACON
03:16PM 39.0500 -77.4333 229° Southwest 205 236 1,900 -600 Descending Potomac TRACON
03:17PM 39.0000 -77.4333 180° South 156 180 1,500 -720 Descending Potomac TRACON
03:18PM 38.9667 -77.4333 180° South 148 170 600 -900 Descending Potomac TRACON
03:20PM 38.9474 -77.4599 191° South  Level Estimated
03:27PM 38.9474 -77.4599 191° South  Level Estimated
03:28PM 38.9474 -77.4599 191° South  Level Estimated
03:29PM 38.9474 -77.4599 191° South  Level Estimated